Guymon Municipal Airport Guymon US
ICAO: KGUY
IATA: GUY
Category: Medium
Scheduled Services: No

Elevation: 3123 ft
TransAlt. 18000 ft.

Airport Communications:
ASOS:119.925
KANSAS CITY CNTR:134
CTAF/UNICOM:122.7

KGUY Zoom In..

If you have problems with the map follow the link
https://www.worldairports.se/pages/airport.php?
ICAO=KGUY

Runways:

(A) RW 18 length 5904 ft width 100 ft
---- / hdg 177

(B) RW 36 length 5904 ft width 100 ft
---- / hdg 357

Location; KGUY
Day. 21 / Time. 17.53 Zulu
* Altimeter: 30.22
* Temperature: 21° c. 69.8°f.
* Wind from: 220° Speed 21 kn with Gusts up to 29 kn.
Dewpoint: 08° c.
Visibility: 10 Statute Miles.
Clouds: Clear (automated report).

KGUY 211753Z AUTO 22021G29KT 10SM CLR 21/08 A3022 RMK AO2 PK WND 23031/1711 SLP213 T02110078 10211 20072 58025


Wind From 220°
Speed 21 kn.

 
 
jpsmedia.com for Web Design worldairports.se 2018   terms of use